sensor_id;sensor_type;location;lat;lon;timestamp;P1;durP1;ratioP1;P2;durP2;ratioP2
16039;SDS011;8124;48.634;8.120;2023-10-09T00:01:03;49.95;;;38.45;;
16039;SDS011;8124;48.634;8.120;2023-10-09T00:06:14;56.47;;;38.90;;
16039;SDS011;8124;48.634;8.120;2023-10-09T00:11:19;56.10;;;38.97;;
16039;SDS011;8124;48.634;8.120;2023-10-09T00:16:27;49.45;;;39.03;;
16039;SDS011;8124;48.634;8.120;2023-10-09T00:21:42;48.95;;;38.28;;
16039;SDS011;8124;48.634;8.120;2023-10-09T00:26:47;49.28;;;39.08;;
16039;SDS011;8124;48.634;8.120;2023-10-09T00:31:50;54.67;;;38.55;;
16039;SDS011;8124;48.634;8.120;2023-10-09T00:36:56;48.67;;;37.88;;
16039;SDS011;8124;48.634;8.120;2023-10-09T00:42:07;54.22;;;38.88;;
16039;SDS011;8124;48.634;8.120;2023-10-09T00:47:14;47.45;;;38.03;;
16039;SDS011;8124;48.634;8.120;2023-10-09T00:52:28;48.80;;;37.85;;
16039;SDS011;8124;48.634;8.120;2023-10-09T00:57:39;48.47;;;38.13;;
16039;SDS011;8124;48.634;8.120;2023-10-09T01:02:49;52.65;;;38.15;;
16039;SDS011;8124;48.634;8.120;2023-10-09T01:08:12;49.35;;;38.70;;
16039;SDS011;8124;48.634;8.120;2023-10-09T01:13:27;55.47;;;38.25;;
16039;SDS011;8124;48.634;8.120;2023-10-09T01:18:40;46.65;;;38.15;;
16039;SDS011;8124;48.634;8.120;2023-10-09T01:23:47;49.97;;;38.70;;
16039;SDS011;8124;48.634;8.120;2023-10-09T01:29:12;51.65;;;37.85;;
16039;SDS011;8124;48.634;8.120;2023-10-09T01:34:21;52.00;;;38.53;;
16039;SDS011;8124;48.634;8.120;2023-10-09T01:39:41;53.38;;;38.22;;
16039;SDS011;8124;48.634;8.120;2023-10-09T01:44:46;47.72;;;37.20;;
16039;SDS011;8124;48.634;8.120;2023-10-09T01:49:49;48.05;;;37.42;;
16039;SDS011;8124;48.634;8.120;2023-10-09T01:54:56;49.55;;;37.70;;
16039;SDS011;8124;48.634;8.120;2023-10-09T02:00:07;53.80;;;38.03;;
16039;SDS011;8124;48.634;8.120;2023-10-09T02:05:12;46.58;;;37.33;;
16039;SDS011;8124;48.634;8.120;2023-10-09T02:10:27;45.47;;;37.80;;
16039;SDS011;8124;48.634;8.120;2023-10-09T02:15:35;53.50;;;38.17;;
16039;SDS011;8124;48.634;8.120;2023-10-09T02:20:58;48.80;;;37.13;;
16039;SDS011;8124;48.634;8.120;2023-10-09T02:26:16;53.17;;;38.70;;
16039;SDS011;8124;48.634;8.120;2023-10-09T02:31:25;46.55;;;37.63;;
16039;SDS011;8124;48.634;8.120;2023-10-09T02:36:37;62.05;;;38.45;;
16039;SDS011;8124;48.634;8.120;2023-10-09T02:41:44;47.60;;;37.53;;
16039;SDS011;8124;48.634;8.120;2023-10-09T02:46:51;48.67;;;37.03;;
16039;SDS011;8124;48.634;8.120;2023-10-09T02:51:59;54.80;;;38.78;;
16039;SDS011;8124;48.634;8.120;2023-10-09T02:57:07;51.83;;;38.08;;
16039;SDS011;8124;48.634;8.120;2023-10-09T03:02:17;56.45;;;38.33;;
16039;SDS011;8124;48.634;8.120;2023-10-09T03:07:20;57.40;;;37.92;;
16039;SDS011;8124;48.634;8.120;2023-10-09T03:12:26;54.47;;;38.60;;
16039;SDS011;8124;48.634;8.120;2023-10-09T03:17:30;54.83;;;37.58;;
16039;SDS011;8124;48.634;8.120;2023-10-09T03:22:35;48.58;;;37.78;;
16039;SDS011;8124;48.634;8.120;2023-10-09T03:27:40;46.17;;;37.35;;
16039;SDS011;8124;48.634;8.120;2023-10-09T03:32:46;55.20;;;38.15;;
16039;SDS011;8124;48.634;8.120;2023-10-09T03:37:53;56.17;;;38.78;;
16039;SDS011;8124;48.634;8.120;2023-10-09T03:42:59;49.08;;;37.75;;
16039;SDS011;8124;48.634;8.120;2023-10-09T03:48:03;50.58;;;38.13;;
16039;SDS011;8124;48.634;8.120;2023-10-09T03:53:12;48.58;;;37.47;;
16039;SDS011;8124;48.634;8.120;2023-10-09T03:58:17;54.25;;;37.95;;
16039;SDS011;8124;48.634;8.120;2023-10-09T04:03:20;54.80;;;37.88;;
16039;SDS011;8124;48.634;8.120;2023-10-09T04:08:23;54.08;;;42.30;;
16039;SDS011;8124;48.634;8.120;2023-10-09T04:13:32;50.33;;;38.05;;
16039;SDS011;8124;48.634;8.120;2023-10-09T04:18:36;51.47;;;38.75;;
16039;SDS011;8124;48.634;8.120;2023-10-09T04:23:41;48.78;;;38.25;;
16039;SDS011;8124;48.634;8.120;2023-10-09T04:29:12;57.03;;;38.45;;
16039;SDS011;8124;48.634;8.120;2023-10-09T04:34:19;51.47;;;38.03;;
16039;SDS011;8124;48.634;8.120;2023-10-09T04:39:30;50.55;;;38.20;;
16039;SDS011;8124;48.634;8.120;2023-10-09T04:44:49;44.80;;;37.40;;
16039;SDS011;8124;48.634;8.120;2023-10-09T04:50:22;52.88;;;38.65;;
16039;SDS011;8124;48.634;8.120;2023-10-09T04:55:45;50.45;;;37.95;;
16039;SDS011;8124;48.634;8.120;2023-10-09T05:00:57;49.25;;;37.40;;
16039;SDS011;8124;48.634;8.120;2023-10-09T05:06:14;51.13;;;38.17;;
16039;SDS011;8124;48.634;8.120;2023-10-09T05:11:23;51.33;;;38.30;;
16039;SDS011;8124;48.634;8.120;2023-10-09T05:16:41;53.88;;;38.00;;
16039;SDS011;8124;48.634;8.120;2023-10-09T05:21:55;46.22;;;36.83;;
16039;SDS011;8124;48.634;8.120;2023-10-09T05:26:59;50.95;;;37.13;;
16039;SDS011;8124;48.634;8.120;2023-10-09T05:32:20;46.95;;;37.05;;
16039;SDS011;8124;48.634;8.120;2023-10-09T05:37:31;48.00;;;37.17;;
16039;SDS011;8124;48.634;8.120;2023-10-09T05:42:36;54.90;;;38.33;;
16039;SDS011;8124;48.634;8.120;2023-10-09T05:47:47;48.95;;;37.35;;
16039;SDS011;8124;48.634;8.120;2023-10-09T05:52:55;48.08;;;37.30;;
16039;SDS011;8124;48.634;8.120;2023-10-09T05:58:27;52.67;;;37.83;;
16039;SDS011;8124;48.634;8.120;2023-10-09T06:04:01;49.50;;;37.92;;
16039;SDS011;8124;48.634;8.120;2023-10-09T06:09:17;52.70;;;37.80;;
16039;SDS011;8124;48.634;8.120;2023-10-09T06:14:51;45.97;;;37.67;;
16039;SDS011;8124;48.634;8.120;2023-10-09T06:20:21;55.13;;;38.08;;
16039;SDS011;8124;48.634;8.120;2023-10-09T06:26:04;54.33;;;38.05;;
16039;SDS011;8124;48.634;8.120;2023-10-09T06:31:25;54.10;;;37.83;;
16039;SDS011;8124;48.634;8.120;2023-10-09T06:36:32;46.72;;;37.30;;
16039;SDS011;8124;48.634;8.120;2023-10-09T06:41:34;46.55;;;37.63;;
16039;SDS011;8124;48.634;8.120;2023-10-09T06:46:39;46.65;;;37.85;;
16039;SDS011;8124;48.634;8.120;2023-10-09T06:51:55;51.15;;;38.47;;
16039;SDS011;8124;48.634;8.120;2023-10-09T06:57:15;46.22;;;37.38;;
16039;SDS011;8124;48.634;8.120;2023-10-09T07:02:39;53.13;;;39.00;;
16039;SDS011;8124;48.634;8.120;2023-10-09T07:07:49;55.13;;;37.92;;
16039;SDS011;8124;48.634;8.120;2023-10-09T07:12:57;46.75;;;37.58;;
16039;SDS011;8124;48.634;8.120;2023-10-09T07:18:00;52.47;;;38.35;;
16039;SDS011;8124;48.634;8.120;2023-10-09T07:23:21;54.35;;;38.33;;
16039;SDS011;8124;48.634;8.120;2023-10-09T07:28:24;51.75;;;38.20;;
16039;SDS011;8124;48.634;8.120;2023-10-09T07:33:44;51.20;;;37.80;;
16039;SDS011;8124;48.634;8.120;2023-10-09T07:39:00;53.28;;;38.10;;
16039;SDS011;8124;48.634;8.120;2023-10-09T07:44:05;47.90;;;37.60;;
16039;SDS011;8124;48.634;8.120;2023-10-09T07:49:35;53.75;;;37.80;;
16039;SDS011;8124;48.634;8.120;2023-10-09T07:54:40;55.75;;;37.83;;
16039;SDS011;8124;48.634;8.120;2023-10-09T07:59:51;48.20;;;37.38;;
16039;SDS011;8124;48.634;8.120;2023-10-09T08:05:12;47.92;;;37.65;;
16039;SDS011;8124;48.634;8.120;2023-10-09T08:10:22;53.47;;;37.92;;
16039;SDS011;8124;48.634;8.120;2023-10-09T08:15:42;58.13;;;38.60;;
16039;SDS011;8124;48.634;8.120;2023-10-09T08:20:54;47.83;;;38.35;;
16039;SDS011;8124;48.634;8.120;2023-10-09T08:26:16;52.00;;;38.63;;
16039;SDS011;8124;48.634;8.120;2023-10-09T08:31:30;53.60;;;39.15;;
16039;SDS011;8124;48.634;8.120;2023-10-09T08:36:47;49.03;;;38.00;;
16039;SDS011;8124;48.634;8.120;2023-10-09T08:41:55;49.60;;;39.13;;
16039;SDS011;8124;48.634;8.120;2023-10-09T08:46:59;51.17;;;39.13;;
16039;SDS011;8124;48.634;8.120;2023-10-09T08:52:02;49.88;;;38.42;;
16039;SDS011;8124;48.634;8.120;2023-10-09T08:57:08;53.17;;;40.08;;
16039;SDS011;8124;48.634;8.120;2023-10-09T09:02:11;51.83;;;39.55;;
16039;SDS011;8124;48.634;8.120;2023-10-09T09:07:23;57.72;;;40.50;;
16039;SDS011;8124;48.634;8.120;2023-10-09T09:12:30;56.63;;;41.17;;
16039;SDS011;8124;48.634;8.120;2023-10-09T09:17:39;51.53;;;39.95;;
16039;SDS011;8124;48.634;8.120;2023-10-09T09:22:51;54.97;;;40.38;;
16039;SDS011;8124;48.634;8.120;2023-10-09T09:27:57;61.05;;;42.38;;
16039;SDS011;8124;48.634;8.120;2023-10-09T09:33:17;55.05;;;40.97;;
16039;SDS011;8124;48.634;8.120;2023-10-09T09:38:28;62.58;;;41.03;;
16039;SDS011;8124;48.634;8.120;2023-10-09T09:43:44;55.85;;;40.88;;
16039;SDS011;8124;48.634;8.120;2023-10-09T09:48:48;53.58;;;40.33;;
16039;SDS011;8124;48.634;8.120;2023-10-09T09:53:55;57.55;;;40.80;;
16039;SDS011;8124;48.634;8.120;2023-10-09T09:59:01;55.40;;;41.92;;
16039;SDS011;8124;48.634;8.120;2023-10-09T10:04:09;59.55;;;41.20;;
16039;SDS011;8124;48.634;8.120;2023-10-09T10:14:52;59.58;;;42.13;;
16039;SDS011;8124;48.634;8.120;2023-10-09T10:19:58;53.80;;;40.55;;
16039;SDS011;8124;48.634;8.120;2023-10-09T10:25:32;59.65;;;41.05;;
16039;SDS011;8124;48.634;8.120;2023-10-09T10:30:40;60.60;;;40.55;;
16039;SDS011;8124;48.634;8.120;2023-10-09T10:35:48;54.08;;;40.78;;
16039;SDS011;8124;48.634;8.120;2023-10-09T10:40:56;49.58;;;39.40;;
16039;SDS011;8124;48.634;8.120;2023-10-09T10:46:14;52.47;;;40.50;;
16039;SDS011;8124;48.634;8.120;2023-10-09T10:51:26;56.38;;;41.20;;
16039;SDS011;8124;48.634;8.120;2023-10-09T10:56:37;48.38;;;40.45;;
16039;SDS011;8124;48.634;8.120;2023-10-09T11:01:42;59.85;;;40.03;;
16039;SDS011;8124;48.634;8.120;2023-10-09T11:07:16;55.70;;;40.65;;
16039;SDS011;8124;48.634;8.120;2023-10-09T11:12:28;52.22;;;39.65;;
16039;SDS011;8124;48.634;8.120;2023-10-09T11:17:41;53.30;;;40.58;;
16039;SDS011;8124;48.634;8.120;2023-10-09T11:22:47;51.22;;;40.17;;
16039;SDS011;8124;48.634;8.120;2023-10-09T11:28:16;56.67;;;40.92;;
16039;SDS011;8124;48.634;8.120;2023-10-09T11:33:43;51.58;;;39.92;;
16039;SDS011;8124;48.634;8.120;2023-10-09T11:38:46;54.00;;;40.05;;
16039;SDS011;8124;48.634;8.120;2023-10-09T11:43:51;55.92;;;40.83;;
16039;SDS011;8124;48.634;8.120;2023-10-09T11:49:03;51.33;;;39.92;;
16039;SDS011;8124;48.634;8.120;2023-10-09T11:54:29;54.28;;;40.47;;
16039;SDS011;8124;48.634;8.120;2023-10-09T11:59:33;50.75;;;39.78;;
16039;SDS011;8124;48.634;8.120;2023-10-09T12:04:40;55.92;;;39.97;;
16039;SDS011;8124;48.634;8.120;2023-10-09T12:09:47;52.35;;;40.67;;
16039;SDS011;8124;48.634;8.120;2023-10-09T12:14:52;50.97;;;40.25;;
16039;SDS011;8124;48.634;8.120;2023-10-09T12:19:57;54.63;;;39.92;;
16039;SDS011;8124;48.634;8.120;2023-10-09T12:25:00;53.25;;;40.70;;
16039;SDS011;8124;48.634;8.120;2023-10-09T12:30:10;57.20;;;40.83;;
16039;SDS011;8124;48.634;8.120;2023-10-09T12:35:15;52.00;;;40.60;;
16039;SDS011;8124;48.634;8.120;2023-10-09T12:40:19;56.70;;;41.30;;
16039;SDS011;8124;48.634;8.120;2023-10-09T12:45:25;59.80;;;41.17;;
16039;SDS011;8124;48.634;8.120;2023-10-09T12:50:30;60.63;;;41.33;;
16039;SDS011;8124;48.634;8.120;2023-10-09T12:55:35;58.45;;;41.88;;
16039;SDS011;8124;48.634;8.120;2023-10-09T13:00:42;59.63;;;41.60;;
16039;SDS011;8124;48.634;8.120;2023-10-09T13:05:52;63.25;;;43.17;;
16039;SDS011;8124;48.634;8.120;2023-10-09T13:10:57;56.03;;;41.08;;
16039;SDS011;8124;48.634;8.120;2023-10-09T13:16:12;57.90;;;41.63;;
16039;SDS011;8124;48.634;8.120;2023-10-09T13:21:26;59.70;;;42.33;;
16039;SDS011;8124;48.634;8.120;2023-10-09T13:26:33;54.15;;;42.22;;
16039;SDS011;8124;48.634;8.120;2023-10-09T13:31:38;64.45;;;41.53;;
16039;SDS011;8124;48.634;8.120;2023-10-09T13:36:49;56.78;;;42.10;;
16039;SDS011;8124;48.634;8.120;2023-10-09T13:41:55;55.15;;;41.40;;
16039;SDS011;8124;48.634;8.120;2023-10-09T13:47:02;61.67;;;41.72;;
16039;SDS011;8124;48.634;8.120;2023-10-09T13:52:09;55.13;;;41.85;;
16039;SDS011;8124;48.634;8.120;2023-10-09T13:57:19;59.58;;;42.45;;
16039;SDS011;8124;48.634;8.120;2023-10-09T14:02:23;54.05;;;41.42;;
16039;SDS011;8124;48.634;8.120;2023-10-09T14:07:31;54.00;;;42.05;;
16039;SDS011;8124;48.634;8.120;2023-10-09T14:12:36;57.20;;;41.78;;
16039;SDS011;8124;48.634;8.120;2023-10-09T14:17:42;56.13;;;41.88;;
16039;SDS011;8124;48.634;8.120;2023-10-09T14:22:49;66.57;;;41.95;;
16039;SDS011;8124;48.634;8.120;2023-10-09T14:27:54;56.67;;;41.50;;
16039;SDS011;8124;48.634;8.120;2023-10-09T14:32:59;62.55;;;41.72;;
16039;SDS011;8124;48.634;8.120;2023-10-09T14:38:05;53.88;;;41.63;;
16039;SDS011;8124;48.634;8.120;2023-10-09T14:43:13;60.17;;;41.88;;
16039;SDS011;8124;48.634;8.120;2023-10-09T14:48:21;64.57;;;42.17;;
16039;SDS011;8124;48.634;8.120;2023-10-09T14:53:28;60.67;;;41.92;;
16039;SDS011;8124;48.634;8.120;2023-10-09T14:58:31;55.47;;;41.38;;
16039;SDS011;8124;48.634;8.120;2023-10-09T15:03:36;54.08;;;41.00;;
16039;SDS011;8124;48.634;8.120;2023-10-09T15:08:41;57.53;;;41.15;;
16039;SDS011;8124;48.634;8.120;2023-10-09T15:13:44;57.13;;;41.30;;
16039;SDS011;8124;48.634;8.120;2023-10-09T15:18:48;59.75;;;42.00;;
16039;SDS011;8124;48.634;8.120;2023-10-09T15:23:55;62.50;;;41.75;;
16039;SDS011;8124;48.634;8.120;2023-10-09T15:29:01;66.00;;;45.58;;
16039;SDS011;8124;48.634;8.120;2023-10-09T15:34:08;60.42;;;45.95;;
16039;SDS011;8124;48.634;8.120;2023-10-09T15:44:58;67.15;;;44.10;;
16039;SDS011;8124;48.634;8.120;2023-10-09T15:50:16;59.05;;;44.28;;
16039;SDS011;8124;48.634;8.120;2023-10-09T15:55:40;65.00;;;46.38;;
16039;SDS011;8124;48.634;8.120;2023-10-09T16:00:46;63.83;;;45.55;;
16039;SDS011;8124;48.634;8.120;2023-10-09T16:05:54;56.47;;;43.85;;
16039;SDS011;8124;48.634;8.120;2023-10-09T16:11:02;58.03;;;42.55;;
16039;SDS011;8124;48.634;8.120;2023-10-09T16:16:14;52.60;;;41.60;;
16039;SDS011;8124;48.634;8.120;2023-10-09T16:21:26;56.05;;;41.40;;
16039;SDS011;8124;48.634;8.120;2023-10-09T16:26:43;56.42;;;41.22;;
16039;SDS011;8124;48.634;8.120;2023-10-09T16:31:56;55.17;;;40.58;;
16039;SDS011;8124;48.634;8.120;2023-10-09T16:37:22;53.30;;;40.47;;
16039;SDS011;8124;48.634;8.120;2023-10-09T16:42:27;52.75;;;40.85;;
16039;SDS011;8124;48.634;8.120;2023-10-09T16:47:47;54.75;;;40.85;;
16039;SDS011;8124;48.634;8.120;2023-10-09T16:54:01;50.67;;;41.13;;
16039;SDS011;8124;48.634;8.120;2023-10-09T16:59:07;48.75;;;40.03;;
16039;SDS011;8124;48.634;8.120;2023-10-09T17:04:17;45.60;;;39.72;;
16039;SDS011;8124;48.634;8.120;2023-10-09T17:09:27;54.85;;;40.85;;
16039;SDS011;8124;48.634;8.120;2023-10-09T17:14:33;49.35;;;40.13;;
16039;SDS011;8124;48.634;8.120;2023-10-09T17:19:37;51.80;;;40.25;;
16039;SDS011;8124;48.634;8.120;2023-10-09T17:24:42;52.08;;;40.33;;
16039;SDS011;8124;48.634;8.120;2023-10-09T17:29:48;52.53;;;41.22;;
16039;SDS011;8124;48.634;8.120;2023-10-09T17:34:51;50.03;;;39.97;;
16039;SDS011;8124;48.634;8.120;2023-10-09T17:39:57;53.08;;;40.40;;
16039;SDS011;8124;48.634;8.120;2023-10-09T17:45:03;49.70;;;40.25;;
16039;SDS011;8124;48.634;8.120;2023-10-09T17:50:10;54.42;;;40.05;;
16039;SDS011;8124;48.634;8.120;2023-10-09T17:55:14;52.42;;;39.95;;
16039;SDS011;8124;48.634;8.120;2023-10-09T18:00:21;52.03;;;40.15;;
16039;SDS011;8124;48.634;8.120;2023-10-09T18:05:24;52.15;;;40.22;;
16039;SDS011;8124;48.634;8.120;2023-10-09T18:10:34;50.33;;;40.85;;
16039;SDS011;8124;48.634;8.120;2023-10-09T18:15:43;48.90;;;40.58;;
16039;SDS011;8124;48.634;8.120;2023-10-09T18:20:46;56.90;;;40.42;;
16039;SDS011;8124;48.634;8.120;2023-10-09T18:25:55;52.55;;;41.10;;
16039;SDS011;8124;48.634;8.120;2023-10-09T18:31:01;50.80;;;39.78;;
16039;SDS011;8124;48.634;8.120;2023-10-09T18:36:14;48.63;;;39.60;;
16039;SDS011;8124;48.634;8.120;2023-10-09T18:41:19;48.30;;;39.83;;
16039;SDS011;8124;48.634;8.120;2023-10-09T18:46:25;56.37;;;43.77;;
16039;SDS011;8124;48.634;8.120;2023-10-09T18:51:29;45.38;;;39.90;;
16039;SDS011;8124;48.634;8.120;2023-10-09T18:56:36;53.33;;;40.88;;
16039;SDS011;8124;48.634;8.120;2023-10-09T19:01:41;50.55;;;40.13;;
16039;SDS011;8124;48.634;8.120;2023-10-09T19:06:48;46.83;;;39.45;;
16039;SDS011;8124;48.634;8.120;2023-10-09T19:11:52;49.63;;;39.95;;
16039;SDS011;8124;48.634;8.120;2023-10-09T19:17:00;46.70;;;39.33;;
16039;SDS011;8124;48.634;8.120;2023-10-09T19:22:04;53.30;;;42.10;;
16039;SDS011;8124;48.634;8.120;2023-10-09T19:27:29;48.50;;;40.25;;
16039;SDS011;8124;48.634;8.120;2023-10-09T19:32:38;50.90;;;40.38;;
16039;SDS011;8124;48.634;8.120;2023-10-09T19:37:42;50.00;;;39.75;;
16039;SDS011;8124;48.634;8.120;2023-10-09T19:42:45;50.28;;;39.88;;
16039;SDS011;8124;48.634;8.120;2023-10-09T19:47:50;51.13;;;39.95;;
16039;SDS011;8124;48.634;8.120;2023-10-09T19:52:53;51.15;;;40.83;;
16039;SDS011;8124;48.634;8.120;2023-10-09T19:57:56;53.35;;;40.72;;
16039;SDS011;8124;48.634;8.120;2023-10-09T20:03:03;51.90;;;40.33;;
16039;SDS011;8124;48.634;8.120;2023-10-09T20:08:06;56.78;;;40.92;;
16039;SDS011;8124;48.634;8.120;2023-10-09T20:13:09;51.17;;;40.55;;
16039;SDS011;8124;48.634;8.120;2023-10-09T20:18:14;51.38;;;40.55;;
16039;SDS011;8124;48.634;8.120;2023-10-09T20:23:17;48.47;;;39.70;;
16039;SDS011;8124;48.634;8.120;2023-10-09T20:28:22;49.97;;;39.88;;
16039;SDS011;8124;48.634;8.120;2023-10-09T20:33:28;51.63;;;39.80;;
16039;SDS011;8124;48.634;8.120;2023-10-09T20:38:34;49.40;;;39.60;;
16039;SDS011;8124;48.634;8.120;2023-10-09T20:43:40;53.17;;;39.88;;
16039;SDS011;8124;48.634;8.120;2023-10-09T20:48:44;51.40;;;39.92;;
16039;SDS011;8124;48.634;8.120;2023-10-09T20:53:48;49.17;;;39.75;;
16039;SDS011;8124;48.634;8.120;2023-10-09T20:58:51;54.95;;;40.17;;
16039;SDS011;8124;48.634;8.120;2023-10-09T21:03:55;54.38;;;40.40;;
16039;SDS011;8124;48.634;8.120;2023-10-09T21:08:58;48.17;;;39.13;;
16039;SDS011;8124;48.634;8.120;2023-10-09T21:14:01;49.13;;;39.28;;
16039;SDS011;8124;48.634;8.120;2023-10-09T21:19:07;55.45;;;39.88;;
16039;SDS011;8124;48.634;8.120;2023-10-09T21:24:11;56.20;;;40.10;;
16039;SDS011;8124;48.634;8.120;2023-10-09T21:29:15;56.97;;;40.20;;
16039;SDS011;8124;48.634;8.120;2023-10-09T21:34:21;53.22;;;39.22;;
16039;SDS011;8124;48.634;8.120;2023-10-09T21:39:24;47.60;;;39.10;;
16039;SDS011;8124;48.634;8.120;2023-10-09T21:44:27;53.30;;;39.25;;
16039;SDS011;8124;48.634;8.120;2023-10-09T21:49:31;48.50;;;39.10;;
16039;SDS011;8124;48.634;8.120;2023-10-09T21:54:35;54.72;;;40.00;;
16039;SDS011;8124;48.634;8.120;2023-10-09T21:59:38;49.53;;;39.25;;
16039;SDS011;8124;48.634;8.120;2023-10-09T22:04:46;54.60;;;39.65;;
16039;SDS011;8124;48.634;8.120;2023-10-09T22:09:49;51.45;;;39.50;;
16039;SDS011;8124;48.634;8.120;2023-10-09T22:14:52;54.35;;;39.85;;
16039;SDS011;8124;48.634;8.120;2023-10-09T22:19:57;52.85;;;39.28;;
16039;SDS011;8124;48.634;8.120;2023-10-09T22:25:01;49.17;;;39.15;;
16039;SDS011;8124;48.634;8.120;2023-10-09T22:30:07;48.75;;;39.20;;
16039;SDS011;8124;48.634;8.120;2023-10-09T22:35:14;46.30;;;38.58;;
16039;SDS011;8124;48.634;8.120;2023-10-09T22:40:20;47.70;;;38.80;;
16039;SDS011;8124;48.634;8.120;2023-10-09T22:45:27;46.03;;;38.42;;
16039;SDS011;8124;48.634;8.120;2023-10-09T22:50:34;48.97;;;38.95;;
16039;SDS011;8124;48.634;8.120;2023-10-09T22:55:38;52.88;;;38.95;;
16039;SDS011;8124;48.634;8.120;2023-10-09T23:00:45;49.20;;;39.08;;
16039;SDS011;8124;48.634;8.120;2023-10-09T23:05:53;48.42;;;39.47;;
16039;SDS011;8124;48.634;8.120;2023-10-09T23:10:59;45.85;;;38.55;;
16039;SDS011;8124;48.634;8.120;2023-10-09T23:16:10;52.47;;;39.63;;
16039;SDS011;8124;48.634;8.120;2023-10-09T23:21:17;49.58;;;39.60;;
16039;SDS011;8124;48.634;8.120;2023-10-09T23:26:24;52.92;;;40.10;;
16039;SDS011;8124;48.634;8.120;2023-10-09T23:31:31;48.53;;;39.65;;
16039;SDS011;8124;48.634;8.120;2023-10-09T23:36:49;46.70;;;38.50;;
16039;SDS011;8124;48.634;8.120;2023-10-09T23:41:56;51.00;;;39.97;;
16039;SDS011;8124;48.634;8.120;2023-10-09T23:47:01;52.30;;;40.40;;
16039;SDS011;8124;48.634;8.120;2023-10-09T23:52:12;50.78;;;40.20;;
16039;SDS011;8124;48.634;8.120;2023-10-09T23:57:16;48.33;;;38.70;;
